Time;durP1;ratioP1;P1;durP2;ratioP2;P2;SDS_P1;SDS_P2;PMS_P1;PMS_P2;Temp;Humidity;BMP_temperature;BMP_pressure;BME280_temperature;BME280_humidity;BME280_pressure;Samples;Min_cycle;Max_cycle;Signal;HPM_P1;HPM_P2
2022/06/27 00:00:02;;;;;;;0.5;0.5;;;;;;;19.3;100.0;101280;;;;
2022/06/27 00:01:00;;;;;;;0.5;0.5;;;;;;;19.3;100.0;101280;;;;
2022/06/27 00:02:00;;;;;;;0.5;0.5;;;;;;;19.3;100.0;101280;;;;
2022/06/27 00:03:00;;;;;;;0.5;0.5;;;;;;;19.3;100.0;101280;;;;
2022/06/27 00:04:00;;;;;;;0.5;0.5;;;;;;;19.3;100.0;101280;;;;
2022/06/27 00:05:00;;;;;;;0.5;0.5;;;;;;;19.3;100.0;101280;;;;
2022/06/27 00:06:00;;;;;;;0.5;0.5;;;;;;;19.3;100.0;101280;;;;
2022/06/27 00:07:00;;;;;;;0.5;0.5;;;;;;;19.3;100.0;101280;;;;
2022/06/27 00:08:00;;;;;;;0.5;0.5;;;;;;;19.3;100.0;101280;;;;
2022/06/27 00:09:00;;;;;;;0.3;0.3;;;;;;;19.4;100.0;101280;;;;
2022/06/27 00:10:00;;;;;;;0.3;0.3;;;;;;;19.4;100.0;101280;;;;
2022/06/27 00:11:00;;;;;;;0.3;0.3;;;;;;;19.4;100.0;101280;;;;
2022/06/27 00:12:00;;;;;;;0.3;0.3;;;;;;;19.4;100.0;101280;;;;
2022/06/27 00:13:00;;;;;;;0.3;0.3;;;;;;;19.4;100.0;101280;;;;
2022/06/27 00:14:00;;;;;;;0.3;0.3;;;;;;;19.4;100.0;101280;;;;
2022/06/27 00:15:00;;;;;;;0.3;0.3;;;;;;;19.5;100.0;101290;;;;
2022/06/27 00:16:09;;;;;;;0.3;0.3;;;;;;;19.5;100.0;101290;;;;
2022/06/27 00:17:00;;;;;;;0.3;0.3;;;;;;;19.4;100.0;101280;;;;
2022/06/27 00:18:00;;;;;;;0.3;0.3;;;;;;;19.4;100.0;101280;;;;
2022/06/27 00:19:00;;;;;;;0.3;0.3;;;;;;;19.4;100.0;101270;;;;
2022/06/27 00:20:00;;;;;;;0.3;0.3;;;;;;;19.4;100.0;101270;;;;
2022/06/27 00:21:00;;;;;;;0.3;0.3;;;;;;;19.3;100.0;101270;;;;
2022/06/27 00:22:00;;;;;;;0.3;0.3;;;;;;;19.3;100.0;101270;;;;
2022/06/27 00:23:00;;;;;;;0.3;0.3;;;;;;;19.4;100.0;101280;;;;
2022/06/27 00:24:00;;;;;;;0.3;0.3;;;;;;;19.4;100.0;101280;;;;
2022/06/27 00:25:00;;;;;;;0.3;0.3;;;;;;;19.4;100.0;101270;;;;
2022/06/27 00:26:00;;;;;;;0.3;0.3;;;;;;;19.4;100.0;101270;;;;
2022/06/27 00:27:00;;;;;;;0.3;0.3;;;;;;;19.4;100.0;101270;;;;
2022/06/27 00:28:00;;;;;;;0.3;0.3;;;;;;;19.4;100.0;101270;;;;
2022/06/27 00:29:00;;;;;;;0.4;0.4;;;;;;;19.4;100.0;101280;;;;
2022/06/27 00:30:00;;;;;;;0.4;0.4;;;;;;;19.4;100.0;101280;;;;
2022/06/27 00:31:00;;;;;;;0.4;0.4;;;;;;;19.3;100.0;101280;;;;
2022/06/27 00:32:00;;;;;;;0.4;0.4;;;;;;;19.3;100.0;101280;;;;
2022/06/27 00:33:00;;;;;;;0.4;0.4;;;;;;;19.4;100.0;101280;;;;
2022/06/27 00:34:00;;;;;;;0.4;0.4;;;;;;;19.4;100.0;101280;;;;
2022/06/27 00:35:00;;;;;;;0.4;0.4;;;;;;;19.4;100.0;101290;;;;
2022/06/27 00:36:00;;;;;;;0.4;0.4;;;;;;;19.4;100.0;101290;;;;
2022/06/27 00:37:00;;;;;;;0.4;0.4;;;;;;;19.4;100.0;101290;;;;
2022/06/27 00:38:00;;;;;;;0.4;0.4;;;;;;;19.4;100.0;101290;;;;
2022/06/27 00:39:00;;;;;;;0.4;0.4;;;;;;;19.4;100.0;101300;;;;
2022/06/27 00:40:00;;;;;;;0.4;0.4;;;;;;;19.4;100.0;101300;;;;
2022/06/27 00:41:00;;;;;;;0.4;0.4;;;;;;;19.3;100.0;101310;;;;
2022/06/27 00:42:00;;;;;;;0.4;0.4;;;;;;;19.3;100.0;101310;;;;
2022/06/27 00:43:00;;;;;;;0.4;0.4;;;;;;;19.4;100.0;101310;;;;
2022/06/27 00:44:00;;;;;;;0.4;0.4;;;;;;;19.4;100.0;101310;;;;
2022/06/27 00:45:00;;;;;;;0.4;0.4;;;;;;;19.4;100.0;101310;;;;
2022/06/27 00:46:00;;;;;;;0.4;0.4;;;;;;;19.4;100.0;101310;;;;
2022/06/27 00:47:00;;;;;;;0.4;0.4;;;;;;;19.4;100.0;101320;;;;
2022/06/27 00:48:00;;;;;;;0.4;0.4;;;;;;;19.4;100.0;101320;;;;
2022/06/27 00:49:00;;;;;;;0.5;0.5;;;;;;;19.2;100.0;101320;;;;
2022/06/27 00:50:00;;;;;;;0.5;0.5;;;;;;;19.2;100.0;101320;;;;
2022/06/27 00:51:00;;;;;;;0.5;0.5;;;;;;;19.2;100.0;101320;;;;
2022/06/27 00:52:02;;;;;;;0.5;0.5;;;;;;;19.2;100.0;101320;;;;
2022/06/27 00:53:00;;;;;;;0.5;0.5;;;;;;;18.9;100.0;101310;;;;
2022/06/27 00:54:01;;;;;;;0.5;0.5;;;;;;;18.9;100.0;101310;;;;
2022/06/27 00:55:00;;;;;;;0.5;0.5;;;;;;;19.1;100.0;101320;;;;
2022/06/27 00:56:00;;;;;;;0.5;0.5;;;;;;;19.1;100.0;101320;;;;
2022/06/27 00:57:00;;;;;;;0.5;0.5;;;;;;;19.1;100.0;101320;;;;
2022/06/27 00:58:01;;;;;;;0.5;0.5;;;;;;;19.1;100.0;101320;;;;
2022/06/27 00:59:00;;;;;;;0.5;0.5;;;;;;;19.0;100.0;101320;;;;
2022/06/27 01:00:00;;;;;;;0.5;0.5;;;;;;;19.0;100.0;101320;;;;
2022/06/27 01:01:00;;;;;;;0.5;0.5;;;;;;;18.9;100.0;101310;;;;
2022/06/27 01:02:01;;;;;;;0.5;0.5;;;;;;;18.9;100.0;101310;;;;
2022/06/27 01:03:00;;;;;;;0.5;0.5;;;;;;;18.9;100.0;101310;;;;
2022/06/27 01:04:01;;;;;;;0.5;0.5;;;;;;;18.9;100.0;101310;;;;
2022/06/27 01:05:00;;;;;;;0.5;0.5;;;;;;;18.9;100.0;101310;;;;
2022/06/27 01:06:00;;;;;;;0.5;0.5;;;;;;;18.9;100.0;101310;;;;
2022/06/27 01:07:00;;;;;;;0.5;0.5;;;;;;;18.9;100.0;101310;;;;
2022/06/27 01:08:00;;;;;;;0.5;0.5;;;;;;;18.9;100.0;101310;;;;
2022/06/27 01:09:00;;;;;;;0.4;0.4;;;;;;;18.9;100.0;101310;;;;
2022/06/27 01:10:00;;;;;;;0.4;0.4;;;;;;;18.9;100.0;101310;;;;
2022/06/27 01:11:00;;;;;;;0.4;0.4;;;;;;;18.9;100.0;101300;;;;
2022/06/27 01:12:01;;;;;;;0.4;0.4;;;;;;;18.9;100.0;101300;;;;
2022/06/27 01:13:00;;;;;;;0.4;0.4;;;;;;;19.0;100.0;101310;;;;
2022/06/27 01:14:00;;;;;;;0.4;0.4;;;;;;;19.0;100.0;101310;;;;
2022/06/27 01:15:01;;;;;;;0.4;0.4;;;;;;;18.8;100.0;101310;;;;
2022/06/27 01:16:00;;;;;;;0.4;0.4;;;;;;;18.8;100.0;101310;;;;
2022/06/27 01:17:00;;;;;;;0.4;0.4;;;;;;;18.8;100.0;101300;;;;
2022/06/27 01:18:00;;;;;;;0.4;0.4;;;;;;;18.8;100.0;101300;;;;
2022/06/27 01:19:01;;;;;;;0.4;0.4;;;;;;;18.9;100.0;101300;;;;
2022/06/27 01:20:00;;;;;;;0.4;0.4;;;;;;;18.9;100.0;101300;;;;
2022/06/27 01:21:00;;;;;;;0.4;0.4;;;;;;;18.9;100.0;101310;;;;
2022/06/27 01:22:00;;;;;;;0.4;0.4;;;;;;;18.9;100.0;101310;;;;
2022/06/27 01:23:00;;;;;;;0.4;0.4;;;;;;;18.9;100.0;101310;;;;
2022/06/27 01:24:00;;;;;;;0.4;0.4;;;;;;;18.9;100.0;101310;;;;
2022/06/27 01:25:00;;;;;;;0.4;0.4;;;;;;;19.0;100.0;101310;;;;
2022/06/27 01:26:00;;;;;;;0.4;0.4;;;;;;;19.0;100.0;101310;;;;
2022/06/27 01:27:00;;;;;;;0.4;0.4;;;;;;;19.0;100.0;101310;;;;
2022/06/27 01:28:00;;;;;;;0.4;0.4;;;;;;;19.0;100.0;101310;;;;
2022/06/27 01:29:00;;;;;;;0.7;0.7;;;;;;;19.0;100.0;101300;;;;
2022/06/27 01:30:00;;;;;;;0.7;0.7;;;;;;;19.0;100.0;101300;;;;
2022/06/27 01:31:00;;;;;;;0.7;0.7;;;;;;;19.0;100.0;101310;;;;
2022/06/27 01:32:00;;;;;;;0.7;0.7;;;;;;;19.0;100.0;101310;;;;
2022/06/27 01:33:00;;;;;;;0.7;0.7;;;;;;;19.0;100.0;101300;;;;
2022/06/27 01:34:00;;;;;;;0.7;0.7;;;;;;;19.0;100.0;101300;;;;
2022/06/27 01:35:00;;;;;;;0.7;0.7;;;;;;;19.0;100.0;101300;;;;
2022/06/27 01:37:00;;;;;;;0.7;0.7;;;;;;;18.9;100.0;101300;;;;
2022/06/27 01:38:00;;;;;;;0.7;0.7;;;;;;;18.9;100.0;101300;;;;
2022/06/27 01:39:00;;;;;;;0.7;0.7;;;;;;;18.9;100.0;101300;;;;
2022/06/27 01:40:00;;;;;;;0.7;0.7;;;;;;;18.9;100.0;101300;;;;
2022/06/27 01:41:00;;;;;;;0.7;0.7;;;;;;;18.9;100.0;101290;;;;
2022/06/27 01:42:02;;;;;;;0.7;0.7;;;;;;;18.9;100.0;101290;;;;
2022/06/27 01:43:00;;;;;;;0.7;0.7;;;;;;;18.8;100.0;101280;;;;
2022/06/27 01:44:00;;;;;;;0.7;0.7;;;;;;;18.8;100.0;101280;;;;
2022/06/27 01:45:00;;;;;;;0.7;0.7;;;;;;;18.8;100.0;101280;;;;
2022/06/27 01:46:00;;;;;;;0.7;0.7;;;;;;;18.8;100.0;101280;;;;
2022/06/27 01:47:00;;;;;;;0.7;0.7;;;;;;;18.8;100.0;101280;;;;
2022/06/27 01:48:00;;;;;;;0.7;0.7;;;;;;;18.8;100.0;101280;;;;
2022/06/27 01:49:00;;;;;;;0.3;0.3;;;;;;;18.9;100.0;101270;;;;
2022/06/27 01:50:00;;;;;;;0.3;0.3;;;;;;;18.9;100.0;101270;;;;
2022/06/27 01:51:00;;;;;;;0.3;0.3;;;;;;;18.8;100.0;101270;;;;
2022/06/27 01:52:01;;;;;;;0.3;0.3;;;;;;;18.8;100.0;101270;;;;
2022/06/27 01:53:00;;;;;;;0.3;0.3;;;;;;;18.8;100.0;101270;;;;
2022/06/27 01:54:00;;;;;;;0.3;0.3;;;;;;;18.8;100.0;101270;;;;
2022/06/27 01:55:00;;;;;;;0.3;0.3;;;;;;;18.8;100.0;101270;;;;
2022/06/27 01:56:00;;;;;;;0.3;0.3;;;;;;;18.8;100.0;101270;;;;
2022/06/27 01:57:00;;;;;;;0.3;0.3;;;;;;;18.8;100.0;101270;;;;
2022/06/27 01:58:00;;;;;;;0.3;0.3;;;;;;;18.8;100.0;101270;;;;
2022/06/27 01:59:00;;;;;;;0.3;0.3;;;;;;;18.8;100.0;101260;;;;
2022/06/27 02:00:00;;;;;;;0.3;0.3;;;;;;;18.8;100.0;101260;;;;
2022/06/27 02:01:00;;;;;;;0.3;0.3;;;;;;;18.7;100.0;101250;;;;
2022/06/27 02:02:01;;;;;;;0.3;0.3;;;;;;;18.7;100.0;101250;;;;
2022/06/27 02:03:00;;;;;;;0.3;0.3;;;;;;;18.7;100.0;101250;;;;
2022/06/27 02:04:00;;;;;;;0.3;0.3;;;;;;;18.7;100.0;101250;;;;
2022/06/27 02:05:00;;;;;;;0.3;0.3;;;;;;;18.7;100.0;101250;;;;
2022/06/27 02:06:00;;;;;;;0.3;0.3;;;;;;;18.7;100.0;101250;;;;
2022/06/27 02:07:00;;;;;;;0.3;0.3;;;;;;;18.6;100.0;101250;;;;
2022/06/27 02:08:02;;;;;;;0.3;0.3;;;;;;;18.6;100.0;101250;;;;
2022/06/27 02:09:02;;;;;;;0.5;0.5;;;;;;;18.8;100.0;101250;;;;
2022/06/27 02:10:00;;;;;;;0.5;0.5;;;;;;;18.8;100.0;101250;;;;
2022/06/27 02:11:00;;;;;;;0.5;0.5;;;;;;;18.8;100.0;101250;;;;
2022/06/27 02:12:18;;;;;;;0.5;0.5;;;;;;;18.8;100.0;101250;;;;
2022/06/27 02:13:00;;;;;;;0.5;0.5;;;;;;;18.8;100.0;101260;;;;
2022/06/27 02:14:00;;;;;;;0.5;0.5;;;;;;;18.8;100.0;101260;;;;
2022/06/27 02:15:00;;;;;;;0.5;0.5;;;;;;;18.8;100.0;101260;;;;
2022/06/27 02:16:04;;;;;;;0.5;0.5;;;;;;;18.8;100.0;101260;;;;
2022/06/27 02:17:00;;;;;;;0.5;0.5;;;;;;;18.8;100.0;101260;;;;
2022/06/27 02:18:00;;;;;;;0.5;0.5;;;;;;;18.8;100.0;101260;;;;
2022/06/27 02:19:00;;;;;;;0.5;0.5;;;;;;;18.7;100.0;101260;;;;
2022/06/27 02:20:00;;;;;;;0.5;0.5;;;;;;;18.7;100.0;101260;;;;
2022/06/27 02:21:00;;;;;;;0.5;0.5;;;;;;;18.8;100.0;101250;;;;
2022/06/27 02:22:00;;;;;;;0.5;0.5;;;;;;;18.8;100.0;101250;;;;
2022/06/27 02:23:00;;;;;;;0.5;0.5;;;;;;;18.8;100.0;101250;;;;
2022/06/27 02:24:00;;;;;;;0.5;0.5;;;;;;;18.8;100.0;101250;;;;
2022/06/27 02:25:00;;;;;;;0.5;0.5;;;;;;;18.8;100.0;101250;;;;
2022/06/27 02:26:00;;;;;;;0.5;0.5;;;;;;;18.8;100.0;101250;;;;
2022/06/27 02:27:00;;;;;;;0.5;0.5;;;;;;;18.7;100.0;101240;;;;
2022/06/27 02:28:00;;;;;;;0.5;0.5;;;;;;;18.7;100.0;101240;;;;
2022/06/27 02:29:00;;;;;;;0.9;0.9;;;;;;;18.7;100.0;101240;;;;
2022/06/27 02:30:00;;;;;;;0.9;0.9;;;;;;;18.7;100.0;101240;;;;
2022/06/27 02:31:00;;;;;;;0.9;0.9;;;;;;;18.6;100.0;101240;;;;
2022/06/27 02:32:01;;;;;;;0.9;0.9;;;;;;;18.6;100.0;101240;;;;
2022/06/27 02:33:00;;;;;;;0.9;0.9;;;;;;;18.5;100.0;101240;;;;
2022/06/27 02:34:00;;;;;;;0.9;0.9;;;;;;;18.5;100.0;101240;;;;
2022/06/27 02:35:00;;;;;;;0.9;0.9;;;;;;;18.6;100.0;101240;;;;
2022/06/27 02:36:01;;;;;;;0.9;0.9;;;;;;;18.6;100.0;101240;;;;
2022/06/27 02:37:00;;;;;;;0.9;0.9;;;;;;;18.6;100.0;101230;;;;
2022/06/27 02:38:01;;;;;;;0.9;0.9;;;;;;;18.6;100.0;101230;;;;
2022/06/27 02:39:00;;;;;;;0.9;0.9;;;;;;;18.6;100.0;101230;;;;
2022/06/27 02:40:00;;;;;;;0.9;0.9;;;;;;;18.6;100.0;101230;;;;
2022/06/27 02:41:02;;;;;;;0.9;0.9;;;;;;;18.6;100.0;101230;;;;
2022/06/27 02:42:01;;;;;;;0.9;0.9;;;;;;;18.6;100.0;101230;;;;
2022/06/27 02:43:00;;;;;;;0.9;0.9;;;;;;;18.5;100.0;101230;;;;
2022/06/27 02:44:02;;;;;;;0.9;0.9;;;;;;;18.5;100.0;101230;;;;
2022/06/27 02:45:01;;;;;;;0.9;0.9;;;;;;;18.5;100.0;101230;;;;
2022/06/27 02:46:00;;;;;;;0.9;0.9;;;;;;;18.5;100.0;101230;;;;
2022/06/27 02:47:01;;;;;;;0.9;0.9;;;;;;;18.6;100.0;101230;;;;
2022/06/27 02:48:01;;;;;;;0.9;0.9;;;;;;;18.6;100.0;101230;;;;
2022/06/27 02:49:00;;;;;;;0.2;0.2;;;;;;;18.7;100.0;101230;;;;
2022/06/27 02:50:00;;;;;;;0.2;0.2;;;;;;;18.7;100.0;101230;;;;
2022/06/27 02:51:03;;;;;;;0.2;0.2;;;;;;;18.7;100.0;101220;;;;
2022/06/27 02:52:08;;;;;;;0.2;0.2;;;;;;;18.7;100.0;101220;;;;
2022/06/27 02:53:02;;;;;;;0.2;0.2;;;;;;;18.5;100.0;101220;;;;
2022/06/27 02:54:03;;;;;;;0.2;0.2;;;;;;;18.5;100.0;101220;;;;
2022/06/27 02:55:03;;;;;;;0.2;0.2;;;;;;;18.6;100.0;101220;;;;
2022/06/27 02:56:02;;;;;;;0.2;0.2;;;;;;;18.6;100.0;101220;;;;
2022/06/27 02:57:04;;;;;;;0.2;0.2;;;;;;;18.7;100.0;101210;;;;
2022/06/27 02:58:07;;;;;;;0.2;0.2;;;;;;;18.7;100.0;101210;;;;
2022/06/27 02:59:06;;;;;;;0.2;0.2;;;;;;;18.5;100.0;101210;;;;
2022/06/27 03:00:01;;;;;;;0.2;0.2;;;;;;;18.5;100.0;101210;;;;
2022/06/27 03:01:02;;;;;;;0.2;0.2;;;;;;;18.5;100.0;101210;;;;
2022/06/27 03:02:00;;;;;;;0.2;0.2;;;;;;;18.5;100.0;101210;;;;
2022/06/27 03:03:01;;;;;;;0.2;0.2;;;;;;;18.4;100.0;101200;;;;
2022/06/27 03:04:00;;;;;;;0.2;0.2;;;;;;;18.4;100.0;101200;;;;
2022/06/27 03:05:00;;;;;;;0.2;0.2;;;;;;;18.5;100.0;101200;;;;
2022/06/27 03:06:01;;;;;;;0.2;0.2;;;;;;;18.5;100.0;101200;;;;
2022/06/27 03:07:00;;;;;;;0.2;0.2;;;;;;;18.5;100.0;101200;;;;
2022/06/27 03:08:00;;;;;;;0.2;0.2;;;;;;;18.5;100.0;101200;;;;
2022/06/27 03:09:00;;;;;;;0.2;0.2;;;;;;;18.6;100.0;101200;;;;
2022/06/27 03:10:02;;;;;;;0.2;0.2;;;;;;;18.6;100.0;101200;;;;
2022/06/27 03:11:00;;;;;;;0.2;0.2;;;;;;;18.5;100.0;101200;;;;
2022/06/27 03:12:00;;;;;;;0.2;0.2;;;;;;;18.5;100.0;101200;;;;
2022/06/27 03:13:00;;;;;;;0.2;0.2;;;;;;;18.5;100.0;101200;;;;
2022/06/27 03:14:00;;;;;;;0.2;0.2;;;;;;;18.5;100.0;101200;;;;
2022/06/27 03:15:00;;;;;;;0.2;0.2;;;;;;;18.4;100.0;101200;;;;
2022/06/27 03:16:00;;;;;;;0.2;0.2;;;;;;;18.4;100.0;101200;;;;
2022/06/27 03:17:00;;;;;;;0.2;0.2;;;;;;;18.5;100.0;101200;;;;
2022/06/27 03:18:00;;;;;;;0.2;0.2;;;;;;;18.5;100.0;101200;;;;
2022/06/27 03:19:00;;;;;;;0.2;0.2;;;;;;;18.5;100.0;101200;;;;
2022/06/27 03:20:00;;;;;;;0.2;0.2;;;;;;;18.5;100.0;101200;;;;
2022/06/27 03:21:00;;;;;;;0.2;0.2;;;;;;;18.5;100.0;101190;;;;
2022/06/27 03:22:00;;;;;;;0.2;0.2;;;;;;;18.5;100.0;101190;;;;
2022/06/27 03:23:00;;;;;;;0.2;0.2;;;;;;;18.5;100.0;101190;;;;
2022/06/27 03:24:00;;;;;;;0.2;0.2;;;;;;;18.5;100.0;101190;;;;
2022/06/27 03:25:00;;;;;;;0.2;0.2;;;;;;;18.5;100.0;101180;;;;
2022/06/27 03:26:00;;;;;;;0.2;0.2;;;;;;;18.5;100.0;101180;;;;
2022/06/27 03:27:00;;;;;;;0.2;0.2;;;;;;;18.4;100.0;101180;;;;
2022/06/27 03:28:00;;;;;;;0.2;0.2;;;;;;;18.4;100.0;101180;;;;
2022/06/27 03:29:02;;;;;;;0.2;0.2;;;;;;;18.5;100.0;101180;;;;
2022/06/27 03:30:00;;;;;;;0.2;0.2;;;;;;;18.5;100.0;101180;;;;
2022/06/27 03:31:00;;;;;;;0.2;0.2;;;;;;;18.4;100.0;101180;;;;
2022/06/27 03:32:00;;;;;;;0.2;0.2;;;;;;;18.4;100.0;101180;;;;
2022/06/27 03:33:00;;;;;;;0.2;0.2;;;;;;;18.4;100.0;101180;;;;
2022/06/27 03:34:00;;;;;;;0.2;0.2;;;;;;;18.4;100.0;101180;;;;
2022/06/27 03:35:00;;;;;;;0.2;0.2;;;;;;;18.4;100.0;101180;;;;
2022/06/27 03:36:00;;;;;;;0.2;0.2;;;;;;;18.4;100.0;101180;;;;
2022/06/27 03:37:00;;;;;;;0.2;0.2;;;;;;;18.4;100.0;101180;;;;
2022/06/27 03:38:00;;;;;;;0.2;0.2;;;;;;;18.4;100.0;101180;;;;
2022/06/27 03:39:00;;;;;;;0.2;0.2;;;;;;;18.3;100.0;101180;;;;
2022/06/27 03:40:00;;;;;;;0.2;0.2;;;;;;;18.3;100.0;101180;;;;
2022/06/27 03:41:00;;;;;;;0.2;0.2;;;;;;;18.3;100.0;101180;;;;
2022/06/27 03:42:00;;;;;;;0.2;0.2;;;;;;;18.3;100.0;101180;;;;
2022/06/27 03:43:00;;;;;;;0.2;0.2;;;;;;;18.3;100.0;101180;;;;
2022/06/27 03:44:00;;;;;;;0.2;0.2;;;;;;;18.3;100.0;101180;;;;
2022/06/27 03:45:00;;;;;;;0.2;0.2;;;;;;;18.3;100.0;101190;;;;
2022/06/27 03:46:00;;;;;;;0.2;0.2;;;;;;;18.3;100.0;101190;;;;
2022/06/27 03:47:00;;;;;;;0.2;0.2;;;;;;;18.2;100.0;101190;;;;
2022/06/27 03:48:02;;;;;;;0.5;0.5;;;;;;;18.2;100.0;101190;;;;
2022/06/27 03:50:00;;;;;;;0.5;0.5;;;;;;;18.3;100.0;101180;;;;
2022/06/27 03:51:00;;;;;;;0.5;0.5;;;;;;;18.3;100.0;101190;;;;
2022/06/27 03:52:00;;;;;;;0.5;0.5;;;;;;;18.3;100.0;101190;;;;
2022/06/27 03:53:00;;;;;;;0.5;0.5;;;;;;;18.2;100.0;101180;;;;
2022/06/27 03:54:00;;;;;;;0.5;0.5;;;;;;;18.2;100.0;101180;;;;
2022/06/27 03:55:00;;;;;;;0.5;0.5;;;;;;;18.2;100.0;101180;;;;
2022/06/27 03:56:00;;;;;;;0.5;0.5;;;;;;;18.2;100.0;101180;;;;
2022/06/27 03:57:00;;;;;;;0.5;0.5;;;;;;;18.2;100.0;101190;;;;
2022/06/27 03:58:00;;;;;;;0.5;0.5;;;;;;;18.2;100.0;101190;;;;
2022/06/27 03:59:00;;;;;;;0.5;0.5;;;;;;;18.2;100.0;101190;;;;
2022/06/27 04:00:00;;;;;;;0.5;0.5;;;;;;;18.2;100.0;101190;;;;
2022/06/27 04:01:01;;;;;;;0.5;0.5;;;;;;;18.1;100.0;101190;;;;
2022/06/27 04:02:00;;;;;;;0.5;0.5;;;;;;;18.1;100.0;101190;;;;
2022/06/27 04:03:00;;;;;;;0.5;0.5;;;;;;;18.1;100.0;101190;;;;
2022/06/27 04:04:00;;;;;;;0.5;0.5;;;;;;;18.1;100.0;101190;;;;
2022/06/27 04:05:00;;;;;;;0.5;0.5;;;;;;;18.1;100.0;101190;;;;
2022/06/27 04:06:00;;;;;;;0.5;0.5;;;;;;;18.1;100.0;101190;;;;
2022/06/27 04:07:02;;;;;;;0.5;0.5;;;;;;;18.0;100.0;101190;;;;
2022/06/27 04:08:01;;;;;;;0.3;0.3;;;;;;;18.0;100.0;101190;;;;
2022/06/27 04:09:00;;;;;;;0.3;0.3;;;;;;;18.0;100.0;101180;;;;
2022/06/27 04:10:00;;;;;;;0.3;0.3;;;;;;;18.0;100.0;101180;;;;
2022/06/27 04:11:00;;;;;;;0.3;0.3;;;;;;;18.0;100.0;101200;;;;
2022/06/27 04:12:00;;;;;;;0.3;0.3;;;;;;;18.0;100.0;101200;;;;
2022/06/27 04:13:00;;;;;;;0.3;0.3;;;;;;;18.0;100.0;101200;;;;
2022/06/27 04:14:00;;;;;;;0.3;0.3;;;;;;;18.0;100.0;101200;;;;
2022/06/27 04:15:00;;;;;;;0.3;0.3;;;;;;;17.9;100.0;101200;;;;
2022/06/27 04:16:00;;;;;;;0.3;0.3;;;;;;;17.9;100.0;101200;;;;
2022/06/27 04:17:00;;;;;;;0.3;0.3;;;;;;;17.9;100.0;101200;;;;
2022/06/27 04:18:00;;;;;;;0.3;0.3;;;;;;;17.9;100.0;101200;;;;
2022/06/27 04:19:00;;;;;;;0.3;0.3;;;;;;;18.0;100.0;101200;;;;
2022/06/27 04:20:00;;;;;;;0.3;0.3;;;;;;;18.0;100.0;101200;;;;
2022/06/27 04:21:00;;;;;;;0.3;0.3;;;;;;;18.0;100.0;101200;;;;
2022/06/27 04:22:00;;;;;;;0.3;0.3;;;;;;;18.0;100.0;101200;;;;
2022/06/27 04:23:00;;;;;;;0.3;0.3;;;;;;;18.0;100.0;101200;;;;
2022/06/27 04:24:02;;;;;;;0.3;0.3;;;;;;;18.0;100.0;101200;;;;
2022/06/27 04:25:00;;;;;;;0.3;0.3;;;;;;;18.0;100.0;101210;;;;
2022/06/27 04:26:00;;;;;;;0.3;0.3;;;;;;;18.0;100.0;101210;;;;
2022/06/27 04:27:00;;;;;;;0.3;0.3;;;;;;;18.0;100.0;101200;;;;
2022/06/27 04:28:00;;;;;;;0.3;0.3;;;;;;;18.0;100.0;101200;;;;
2022/06/27 04:29:00;;;;;;;0.3;0.3;;;;;;;18.1;100.0;101200;;;;
2022/06/27 04:30:00;;;;;;;0.3;0.3;;;;;;;18.1;100.0;101200;;;;
2022/06/27 04:31:00;;;;;;;0.3;0.3;;;;;;;18.1;100.0;101200;;;;
2022/06/27 04:32:00;;;;;;;0.3;0.3;;;;;;;18.1;100.0;101200;;;;
2022/06/27 04:33:00;;;;;;;0.3;0.3;;;;;;;18.1;100.0;101210;;;;
2022/06/27 04:34:00;;;;;;;0.3;0.3;;;;;;;18.1;100.0;101210;;;;
2022/06/27 04:35:01;;;;;;;0.3;0.3;;;;;;;18.1;100.0;101190;;;;
2022/06/27 04:36:00;;;;;;;0.3;0.3;;;;;;;18.1;100.0;101190;;;;
2022/06/27 04:37:00;;;;;;;0.3;0.3;;;;;;;18.2;100.0;101190;;;;
2022/06/27 04:38:00;;;;;;;0.3;0.3;;;;;;;18.2;100.0;101190;;;;
2022/06/27 04:39:00;;;;;;;0.3;0.3;;;;;;;18.2;100.0;101170;;;;
2022/06/27 04:40:00;;;;;;;0.3;0.3;;;;;;;18.2;100.0;101170;;;;
2022/06/27 04:41:00;;;;;;;0.3;0.3;;;;;;;18.2;100.0;101170;;;;
2022/06/27 04:42:00;;;;;;;0.3;0.3;;;;;;;18.2;100.0;101170;;;;
2022/06/27 04:43:00;;;;;;;0.3;0.3;;;;;;;18.3;100.0;101170;;;;
2022/06/27 04:44:00;;;;;;;0.3;0.3;;;;;;;18.3;100.0;101170;;;;
2022/06/27 04:45:01;;;;;;;0.3;0.3;;;;;;;18.4;100.0;101160;;;;
2022/06/27 04:46:01;;;;;;;0.3;0.3;;;;;;;18.4;100.0;101160;;;;
2022/06/27 04:47:02;;;;;;;0.3;0.3;;;;;;;18.4;100.0;101160;;;;
2022/06/27 04:48:00;;;;;;;0.5;0.5;;;;;;;18.4;100.0;101160;;;;
2022/06/27 04:49:00;;;;;;;0.5;0.5;;;;;;;18.4;100.0;101160;;;;
2022/06/27 04:50:00;;;;;;;0.5;0.5;;;;;;;18.4;100.0;101160;;;;
2022/06/27 04:51:01;;;;;;;0.5;0.5;;;;;;;18.5;100.0;101160;;;;
2022/06/27 04:52:00;;;;;;;0.5;0.5;;;;;;;18.5;100.0;101160;;;;
2022/06/27 04:53:00;;;;;;;0.5;0.5;;;;;;;18.4;100.0;101150;;;;
2022/06/27 04:54:00;;;;;;;0.5;0.5;;;;;;;18.4;100.0;101150;;;;
2022/06/27 04:55:00;;;;;;;0.5;0.5;;;;;;;18.5;100.0;101150;;;;
2022/06/27 04:56:00;;;;;;;0.5;0.5;;;;;;;18.5;100.0;101150;;;;
2022/06/27 04:57:00;;;;;;;0.5;0.5;;;;;;;18.5;100.0;101140;;;;
2022/06/27 04:58:00;;;;;;;0.5;0.5;;;;;;;18.5;100.0;101140;;;;
2022/06/27 04:59:00;;;;;;;0.5;0.5;;;;;;;18.5;100.0;101150;;;;
2022/06/27 05:00:00;;;;;;;0.5;0.5;;;;;;;18.5;100.0;101150;;;;
2022/06/27 05:01:00;;;;;;;0.5;0.5;;;;;;;18.5;100.0;101160;;;;
2022/06/27 05:02:00;;;;;;;0.5;0.5;;;;;;;18.5;100.0;101160;;;;
2022/06/27 05:03:00;;;;;;;0.5;0.5;;;;;;;18.6;100.0;101170;;;;
2022/06/27 05:04:00;;;;;;;0.5;0.5;;;;;;;18.6;100.0;101170;;;;
2022/06/27 05:05:00;;;;;;;0.5;0.5;;;;;;;18.6;100.0;101170;;;;
2022/06/27 05:06:00;;;;;;;0.5;0.5;;;;;;;18.6;100.0;101170;;;;
2022/06/27 05:07:01;;;;;;;0.5;0.5;;;;;;;18.6;100.0;101160;;;;
2022/06/27 05:08:01;;;;;;;1.2;1.0;;;;;;;18.6;100.0;101160;;;;
2022/06/27 05:09:00;;;;;;;1.2;1.0;;;;;;;18.5;100.0;101160;;;;
2022/06/27 05:10:00;;;;;;;1.2;1.0;;;;;;;18.5;100.0;101160;;;;
2022/06/27 05:11:00;;;;;;;1.2;1.0;;;;;;;18.6;100.0;101160;;;;
2022/06/27 05:12:00;;;;;;;1.2;1.0;;;;;;;18.6;100.0;101160;;;;
2022/06/27 05:13:00;;;;;;;1.2;1.0;;;;;;;18.6;100.0;101160;;;;
2022/06/27 05:14:00;;;;;;;1.2;1.0;;;;;;;18.6;100.0;101160;;;;
2022/06/27 05:15:00;;;;;;;1.2;1.0;;;;;;;18.7;100.0;101150;;;;
2022/06/27 05:16:00;;;;;;;1.2;1.0;;;;;;;18.7;100.0;101150;;;;
2022/06/27 05:17:00;;;;;;;1.2;1.0;;;;;;;18.7;100.0;101140;;;;
2022/06/27 05:18:00;;;;;;;1.2;1.0;;;;;;;18.7;100.0;101140;;;;
2022/06/27 05:19:10;;;;;;;1.2;1.0;;;;;;;18.8;100.0;101140;;;;
2022/06/27 05:20:02;;;;;;;1.2;1.0;;;;;;;18.8;100.0;101140;;;;
2022/06/27 05:21:00;;;;;;;1.2;1.0;;;;;;;18.8;100.0;101140;;;;
2022/06/27 05:22:00;;;;;;;1.2;1.0;;;;;;;18.8;100.0;101140;;;;
2022/06/27 05:23:00;;;;;;;1.2;1.0;;;;;;;18.8;100.0;101130;;;;
2022/06/27 05:24:00;;;;;;;1.2;1.0;;;;;;;18.8;100.0;101130;;;;
2022/06/27 05:25:00;;;;;;;1.2;1.0;;;;;;;18.8;100.0;101140;;;;
2022/06/27 05:26:01;;;;;;;1.2;1.0;;;;;;;18.8;100.0;101140;;;;
2022/06/27 05:27:00;;;;;;;1.2;1.0;;;;;;;18.6;100.0;101140;;;;
2022/06/27 05:28:02;;;;;;;0.2;0.2;;;;;;;18.6;100.0;101140;;;;
2022/06/27 05:29:01;;;;;;;0.2;0.2;;;;;;;18.7;100.0;101140;;;;
2022/06/27 05:30:01;;;;;;;0.2;0.2;;;;;;;18.7;100.0;101140;;;;
2022/06/27 05:31:00;;;;;;;0.2;0.2;;;;;;;18.7;100.0;101150;;;;
2022/06/27 05:32:01;;;;;;;0.2;0.2;;;;;;;18.7;100.0;101150;;;;
2022/06/27 05:33:00;;;;;;;0.2;0.2;;;;;;;18.8;100.0;101160;;;;
2022/06/27 05:34:00;;;;;;;0.2;0.2;;;;;;;18.8;100.0;101160;;;;
2022/06/27 05:35:00;;;;;;;0.2;0.2;;;;;;;18.8;100.0;101150;;;;
2022/06/27 05:36:01;;;;;;;0.2;0.2;;;;;;;18.8;100.0;101150;;;;
2022/06/27 05:37:00;;;;;;;0.2;0.2;;;;;;;18.8;100.0;101150;;;;
2022/06/27 05:38:00;;;;;;;0.2;0.2;;;;;;;18.8;100.0;101150;;;;
2022/06/27 05:39:00;;;;;;;0.2;0.2;;;;;;;18.8;100.0;101150;;;;
2022/06/27 05:40:00;;;;;;;0.2;0.2;;;;;;;18.8;100.0;101150;;;;
2022/06/27 05:41:02;;;;;;;0.2;0.2;;;;;;;18.8;100.0;101140;;;;
2022/06/27 05:42:00;;;;;;;0.2;0.2;;;;;;;18.8;100.0;101140;;;;
2022/06/27 05:43:00;;;;;;;0.2;0.2;;;;;;;18.7;100.0;101150;;;;
2022/06/27 05:44:00;;;;;;;0.2;0.2;;;;;;;18.7;100.0;101150;;;;
2022/06/27 05:45:01;;;;;;;0.2;0.2;;;;;;;18.7;100.0;101170;;;;
2022/06/27 05:46:00;;;;;;;0.2;0.2;;;;;;;18.7;100.0;101170;;;;
2022/06/27 05:47:00;;;;;;;0.2;0.2;;;;;;;18.7;100.0;101200;;;;
2022/06/27 05:48:01;;;;;;;0.2;0.2;;;;;;;18.7;100.0;101200;;;;
2022/06/27 05:49:01;;;;;;;0.2;0.2;;;;;;;18.8;100.0;101230;;;;
2022/06/27 05:50:00;;;;;;;0.2;0.2;;;;;;;18.8;100.0;101230;;;;
2022/06/27 05:51:00;;;;;;;0.2;0.2;;;;;;;18.7;100.0;101230;;;;
2022/06/27 05:52:00;;;;;;;0.2;0.2;;;;;;;18.7;100.0;101230;;;;
2022/06/27 05:53:06;;;;;;;0.2;0.2;;;;;;;18.8;100.0;101240;;;;
2022/06/27 05:54:01;;;;;;;0.2;0.2;;;;;;;18.8;100.0;101240;;;;
2022/06/27 05:55:00;;;;;;;0.2;0.2;;;;;;;18.7;100.0;101240;;;;
2022/06/27 05:56:00;;;;;;;0.2;0.2;;;;;;;18.7;100.0;101240;;;;
2022/06/27 05:57:00;;;;;;;0.2;0.2;;;;;;;18.7;100.0;101250;;;;
2022/06/27 05:58:00;;;;;;;0.2;0.2;;;;;;;18.7;100.0;101250;;;;
2022/06/27 05:59:02;;;;;;;0.2;0.2;;;;;;;18.7;100.0;101250;;;;
2022/06/27 06:00:00;;;;;;;0.2;0.2;;;;;;;18.7;100.0;101250;;;;
2022/06/27 06:01:01;;;;;;;0.2;0.2;;;;;;;18.8;100.0;101260;;;;
2022/06/27 06:02:00;;;;;;;0.2;0.2;;;;;;;18.8;100.0;101260;;;;
2022/06/27 06:03:00;;;;;;;0.2;0.2;;;;;;;18.9;100.0;101280;;;;
2022/06/27 06:04:00;;;;;;;0.2;0.2;;;;;;;18.9;100.0;101280;;;;
2022/06/27 06:05:01;;;;;;;0.2;0.2;;;;;;;18.8;100.0;101270;;;;
2022/06/27 06:06:00;;;;;;;0.2;0.2;;;;;;;18.8;100.0;101270;;;;
2022/06/27 06:07:00;;;;;;;0.2;0.2;;;;;;;18.8;100.0;101270;;;;
2022/06/27 06:08:02;;;;;;;0.3;0.3;;;;;;;18.8;100.0;101270;;;;
2022/06/27 06:09:01;;;;;;;0.3;0.3;;;;;;;18.8;100.0;101280;;;;
2022/06/27 06:10:00;;;;;;;0.3;0.3;;;;;;;18.8;100.0;101280;;;;
2022/06/27 06:11:00;;;;;;;0.3;0.3;;;;;;;18.9;100.0;101270;;;;
2022/06/27 06:12:00;;;;;;;0.3;0.3;;;;;;;18.9;100.0;101270;;;;
2022/06/27 06:13:01;;;;;;;0.3;0.3;;;;;;;18.8;100.0;101270;;;;
2022/06/27 06:14:00;;;;;;;0.3;0.3;;;;;;;18.8;100.0;101270;;;;
2022/06/27 06:15:04;;;;;;;0.3;0.3;;;;;;;18.8;100.0;101280;;;;
2022/06/27 06:16:00;;;;;;;0.3;0.3;;;;;;;18.8;100.0;101280;;;;
2022/06/27 06:17:00;;;;;;;0.3;0.3;;;;;;;18.7;100.0;101280;;;;
2022/06/27 06:18:01;;;;;;;0.3;0.3;;;;;;;18.7;100.0;101280;;;;
2022/06/27 06:19:00;;;;;;;0.3;0.3;;;;;;;18.8;100.0;101280;;;;
2022/06/27 06:20:00;;;;;;;0.3;0.3;;;;;;;18.8;100.0;101280;;;;
2022/06/27 06:21:00;;;;;;;0.3;0.3;;;;;;;18.9;100.0;101280;;;;
2022/06/27 06:22:00;;;;;;;0.3;0.3;;;;;;;18.9;100.0;101280;;;;
2022/06/27 06:23:00;;;;;;;0.3;0.3;;;;;;;18.9;100.0;101280;;;;
2022/06/27 06:24:00;;;;;;;0.3;0.3;;;;;;;18.9;100.0;101280;;;;